sensor_id;sensor_type;location;lat;lon;timestamp;temperature;humidity
44271;DHT22;29963;44.594;11.368;2022-11-20T00:00:36;10.10;99.90
44271;DHT22;29963;44.594;11.368;2022-11-20T00:03:02;10.10;99.90
44271;DHT22;29963;44.594;11.368;2022-11-20T00:05:28;10.10;99.90
44271;DHT22;29963;44.594;11.368;2022-11-20T00:07:53;10.20;99.90
44271;DHT22;29963;44.594;11.368;2022-11-20T00:10:19;10.20;99.90
44271;DHT22;29963;44.594;11.368;2022-11-20T00:12:45;10.20;99.90
44271;DHT22;29963;44.594;11.368;2022-11-20T00:15:10;10.20;99.90
44271;DHT22;29963;44.594;11.368;2022-11-20T00:17:36;10.10;99.90
44271;DHT22;29963;44.594;11.368;2022-11-20T00:20:01;10.20;99.90
44271;DHT22;29963;44.594;11.368;2022-11-20T00:22:27;10.20;99.90
44271;DHT22;29963;44.594;11.368;2022-11-20T00:24:53;10.20;99.90
44271;DHT22;29963;44.594;11.368;2022-11-20T00:27:18;10.20;99.90
44271;DHT22;29963;44.594;11.368;2022-11-20T00:29:44;10.10;99.90
44271;DHT22;29963;44.594;11.368;2022-11-20T00:32:10;10.10;99.90
44271;DHT22;29963;44.594;11.368;2022-11-20T00:34:35;10.10;99.90
44271;DHT22;29963;44.594;11.368;2022-11-20T00:37:01;10.10;99.90
44271;DHT22;29963;44.594;11.368;2022-11-20T00:39:26;10.00;99.90
44271;DHT22;29963;44.594;11.368;2022-11-20T00:41:52;9.90;99.90
44271;DHT22;29963;44.594;11.368;2022-11-20T00:44:17;9.90;99.90
44271;DHT22;29963;44.594;11.368;2022-11-20T00:46:43;9.90;99.90
44271;DHT22;29963;44.594;11.368;2022-11-20T00:49:09;9.80;99.90
44271;DHT22;29963;44.594;11.368;2022-11-20T00:51:34;9.80;99.90
44271;DHT22;29963;44.594;11.368;2022-11-20T00:54:00;9.80;99.90
44271;DHT22;29963;44.594;11.368;2022-11-20T00:56:27;9.70;99.90
44271;DHT22;29963;44.594;11.368;2022-11-20T00:58:53;9.70;99.90
44271;DHT22;29963;44.594;11.368;2022-11-20T01:01:23;9.70;99.90
44271;DHT22;29963;44.594;11.368;2022-11-20T01:03:50;9.60;99.90
44271;DHT22;29963;44.594;11.368;2022-11-20T01:06:24;9.60;99.90
44271;DHT22;29963;44.594;11.368;2022-11-20T01:08:53;9.60;99.90
44271;DHT22;29963;44.594;11.368;2022-11-20T01:11:22;9.60;99.90
44271;DHT22;29963;44.594;11.368;2022-11-20T01:13:49;9.70;99.90
44271;DHT22;29963;44.594;11.368;2022-11-20T01:18:48;9.60;99.90
44271;DHT22;29963;44.594;11.368;2022-11-20T01:21:22;9.60;99.90
44271;DHT22;29963;44.594;11.368;2022-11-20T01:23:49;9.60;99.90
44271;DHT22;29963;44.594;11.368;2022-11-20T01:26:17;9.50;99.90
44271;DHT22;29963;44.594;11.368;2022-11-20T01:28:43;9.50;99.90
44271;DHT22;29963;44.594;11.368;2022-11-20T01:31:21;9.50;99.90
44271;DHT22;29963;44.594;11.368;2022-11-20T01:33:48;9.50;99.90
44271;DHT22;29963;44.594;11.368;2022-11-20T01:36:16;9.40;99.90
44271;DHT22;29963;44.594;11.368;2022-11-20T01:38:42;9.40;99.90
44271;DHT22;29963;44.594;11.368;2022-11-20T01:41:09;9.40;99.90
44271;DHT22;29963;44.594;11.368;2022-11-20T01:43:35;9.40;99.90
44271;DHT22;29963;44.594;11.368;2022-11-20T01:51:55;9.40;99.90
44271;DHT22;29963;44.594;11.368;2022-11-20T01:54:27;9.40;99.90
44271;DHT22;29963;44.594;11.368;2022-11-20T01:56:57;9.40;99.90
44271;DHT22;29963;44.594;11.368;2022-11-20T01:59:26;9.50;99.90
44271;DHT22;29963;44.594;11.368;2022-11-20T02:01:53;9.50;99.90
44271;DHT22;29963;44.594;11.368;2022-11-20T02:04:20;9.50;99.90
44271;DHT22;29963;44.594;11.368;2022-11-20T02:07:06;9.60;99.90
44271;DHT22;29963;44.594;11.368;2022-11-20T02:09:32;9.60;99.90
44271;DHT22;29963;44.594;11.368;2022-11-20T02:11:58;9.60;99.90
44271;DHT22;29963;44.594;11.368;2022-11-20T02:14:24;9.60;99.90
44271;DHT22;29963;44.594;11.368;2022-11-20T02:16:51;9.70;99.90
44271;DHT22;29963;44.594;11.368;2022-11-20T02:19:30;9.70;99.90
44271;DHT22;29963;44.594;11.368;2022-11-20T02:22:08;9.70;99.90
44271;DHT22;29963;44.594;11.368;2022-11-20T02:24:36;9.70;99.90
44271;DHT22;29963;44.594;11.368;2022-11-20T02:27:09;9.60;99.90
44271;DHT22;29963;44.594;11.368;2022-11-20T02:29:49;9.60;99.90
44271;DHT22;29963;44.594;11.368;2022-11-20T02:32:27;9.40;99.90
44271;DHT22;29963;44.594;11.368;2022-11-20T02:34:53;9.50;99.90
44271;DHT22;29963;44.594;11.368;2022-11-20T02:37:19;9.40;99.90
44271;DHT22;29963;44.594;11.368;2022-11-20T02:39:47;9.40;99.90
44271;DHT22;29963;44.594;11.368;2022-11-20T02:42:13;9.40;99.90
44271;DHT22;29963;44.594;11.368;2022-11-20T02:44:39;9.40;99.90
44271;DHT22;29963;44.594;11.368;2022-11-20T02:47:05;9.40;99.90
44271;DHT22;29963;44.594;11.368;2022-11-20T02:49:30;9.40;99.90
44271;DHT22;29963;44.594;11.368;2022-11-20T02:51:56;9.40;99.90
44271;DHT22;29963;44.594;11.368;2022-11-20T02:54:22;9.40;99.90
44271;DHT22;29963;44.594;11.368;2022-11-20T02:56:48;9.40;99.90
44271;DHT22;29963;44.594;11.368;2022-11-20T02:59:13;9.40;99.90
44271;DHT22;29963;44.594;11.368;2022-11-20T03:01:39;9.40;99.90
44271;DHT22;29963;44.594;11.368;2022-11-20T03:04:04;9.40;99.90
44271;DHT22;29963;44.594;11.368;2022-11-20T03:06:30;9.40;99.90
44271;DHT22;29963;44.594;11.368;2022-11-20T03:08:56;9.40;99.90
44271;DHT22;29963;44.594;11.368;2022-11-20T03:11:21;9.40;99.90
44271;DHT22;29963;44.594;11.368;2022-11-20T03:13:47;9.30;99.90
44271;DHT22;29963;44.594;11.368;2022-11-20T03:16:15;9.30;99.90
44271;DHT22;29963;44.594;11.368;2022-11-20T03:18:42;9.30;99.90
44271;DHT22;29963;44.594;11.368;2022-11-20T03:21:09;9.30;99.90
44271;DHT22;29963;44.594;11.368;2022-11-20T03:23:35;9.30;99.90
44271;DHT22;29963;44.594;11.368;2022-11-20T03:26:15;9.30;99.90
44271;DHT22;29963;44.594;11.368;2022-11-20T03:28:46;9.30;99.90
44271;DHT22;29963;44.594;11.368;2022-11-20T03:31:13;9.30;99.90
44271;DHT22;29963;44.594;11.368;2022-11-20T03:33:40;9.30;99.90
44271;DHT22;29963;44.594;11.368;2022-11-20T03:36:09;9.30;99.90
44271;DHT22;29963;44.594;11.368;2022-11-20T03:38:36;9.20;99.90
44271;DHT22;29963;44.594;11.368;2022-11-20T03:41:04;9.20;99.90
44271;DHT22;29963;44.594;11.368;2022-11-20T03:43:30;9.10;99.90
44271;DHT22;29963;44.594;11.368;2022-11-20T03:45:56;9.10;99.90
44271;DHT22;29963;44.594;11.368;2022-11-20T03:48:22;9.10;99.90
44271;DHT22;29963;44.594;11.368;2022-11-20T03:50:47;9.10;99.90
44271;DHT22;29963;44.594;11.368;2022-11-20T03:53:17;9.10;99.90
44271;DHT22;29963;44.594;11.368;2022-11-20T03:55:43;9.10;99.90
44271;DHT22;29963;44.594;11.368;2022-11-20T03:58:09;9.00;99.90
44271;DHT22;29963;44.594;11.368;2022-11-20T04:00:35;9.10;99.90
44271;DHT22;29963;44.594;11.368;2022-11-20T04:03:01;9.00;99.90
44271;DHT22;29963;44.594;11.368;2022-11-20T04:05:27;9.10;99.90
44271;DHT22;29963;44.594;11.368;2022-11-20T04:07:52;9.00;99.90
44271;DHT22;29963;44.594;11.368;2022-11-20T04:10:18;9.00;99.90
44271;DHT22;29963;44.594;11.368;2022-11-20T04:12:44;9.00;99.90
44271;DHT22;29963;44.594;11.368;2022-11-20T04:15:09;9.00;99.90
44271;DHT22;29963;44.594;11.368;2022-11-20T04:17:35;9.10;99.90
44271;DHT22;29963;44.594;11.368;2022-11-20T04:20:01;9.00;99.90
44271;DHT22;29963;44.594;11.368;2022-11-20T04:22:27;9.00;99.90
44271;DHT22;29963;44.594;11.368;2022-11-20T04:24:53;9.00;99.90
44271;DHT22;29963;44.594;11.368;2022-11-20T04:27:19;8.90;99.90
44271;DHT22;29963;44.594;11.368;2022-11-20T04:29:44;9.00;99.90
44271;DHT22;29963;44.594;11.368;2022-11-20T04:32:10;9.00;99.90
44271;DHT22;29963;44.594;11.368;2022-11-20T04:34:35;9.00;99.90
44271;DHT22;29963;44.594;11.368;2022-11-20T04:37:01;8.90;99.90
44271;DHT22;29963;44.594;11.368;2022-11-20T04:39:27;8.90;99.90
44271;DHT22;29963;44.594;11.368;2022-11-20T04:41:52;8.90;99.90
44271;DHT22;29963;44.594;11.368;2022-11-20T04:44:38;8.90;99.90
44271;DHT22;29963;44.594;11.368;2022-11-20T04:47:03;8.90;99.90
44271;DHT22;29963;44.594;11.368;2022-11-20T04:49:29;8.90;99.90
44271;DHT22;29963;44.594;11.368;2022-11-20T04:51:57;8.80;99.90
44271;DHT22;29963;44.594;11.368;2022-11-20T04:54:23;8.80;99.90
44271;DHT22;29963;44.594;11.368;2022-11-20T04:56:49;8.80;99.90
44271;DHT22;29963;44.594;11.368;2022-11-20T04:59:14;8.80;99.90
44271;DHT22;29963;44.594;11.368;2022-11-20T05:01:40;8.80;99.90
44271;DHT22;29963;44.594;11.368;2022-11-20T05:04:06;8.80;99.90
44271;DHT22;29963;44.594;11.368;2022-11-20T05:06:32;8.70;99.90
44271;DHT22;29963;44.594;11.368;2022-11-20T05:08:58;8.80;99.90
44271;DHT22;29963;44.594;11.368;2022-11-20T05:11:24;8.80;99.90
44271;DHT22;29963;44.594;11.368;2022-11-20T05:13:51;8.80;99.90
44271;DHT22;29963;44.594;11.368;2022-11-20T05:16:19;8.80;99.90
44271;DHT22;29963;44.594;11.368;2022-11-20T05:18:45;8.80;99.90
44271;DHT22;29963;44.594;11.368;2022-11-20T05:21:11;8.70;99.90
44271;DHT22;29963;44.594;11.368;2022-11-20T05:23:38;8.80;99.90
44271;DHT22;29963;44.594;11.368;2022-11-20T05:26:04;8.80;99.90
44271;DHT22;29963;44.594;11.368;2022-11-20T05:28:31;8.90;99.90
44271;DHT22;29963;44.594;11.368;2022-11-20T05:31:05;8.80;99.90
44271;DHT22;29963;44.594;11.368;2022-11-20T05:33:31;8.80;99.90
44271;DHT22;29963;44.594;11.368;2022-11-20T05:36:00;8.80;99.90
44271;DHT22;29963;44.594;11.368;2022-11-20T05:38:25;8.70;99.90
44271;DHT22;29963;44.594;11.368;2022-11-20T05:40:51;8.70;99.90
44271;DHT22;29963;44.594;11.368;2022-11-20T05:43:16;8.70;99.90
44271;DHT22;29963;44.594;11.368;2022-11-20T05:45:42;8.70;99.90
44271;DHT22;29963;44.594;11.368;2022-11-20T05:48:08;8.70;99.90
44271;DHT22;29963;44.594;11.368;2022-11-20T05:50:33;8.70;99.90
44271;DHT22;29963;44.594;11.368;2022-11-20T05:52:59;8.60;99.90
44271;DHT22;29963;44.594;11.368;2022-11-20T05:55:26;8.60;99.90
44271;DHT22;29963;44.594;11.368;2022-11-20T05:57:54;8.60;99.90
44271;DHT22;29963;44.594;11.368;2022-11-20T06:00:20;8.60;99.90
44271;DHT22;29963;44.594;11.368;2022-11-20T06:02:46;8.60;99.90
44271;DHT22;29963;44.594;11.368;2022-11-20T06:05:11;8.60;99.90
44271;DHT22;29963;44.594;11.368;2022-11-20T06:07:37;8.60;99.90
44271;DHT22;29963;44.594;11.368;2022-11-20T06:10:03;8.50;99.90
44271;DHT22;29963;44.594;11.368;2022-11-20T06:12:31;8.50;99.90
44271;DHT22;29963;44.594;11.368;2022-11-20T06:14:57;8.50;99.90
44271;DHT22;29963;44.594;11.368;2022-11-20T06:17:22;8.50;99.90
44271;DHT22;29963;44.594;11.368;2022-11-20T06:19:48;8.40;99.90
44271;DHT22;29963;44.594;11.368;2022-11-20T06:22:13;8.40;99.90
44271;DHT22;29963;44.594;11.368;2022-11-20T06:24:39;8.40;99.90
44271;DHT22;29963;44.594;11.368;2022-11-20T06:27:05;8.40;99.90
44271;DHT22;29963;44.594;11.368;2022-11-20T06:29:30;8.50;99.90
44271;DHT22;29963;44.594;11.368;2022-11-20T06:31:56;8.50;99.90
44271;DHT22;29963;44.594;11.368;2022-11-20T06:34:21;8.40;99.90
44271;DHT22;29963;44.594;11.368;2022-11-20T06:36:47;8.40;99.90
44271;DHT22;29963;44.594;11.368;2022-11-20T06:39:13;8.40;99.90
44271;DHT22;29963;44.594;11.368;2022-11-20T06:41:38;8.40;99.90
44271;DHT22;29963;44.594;11.368;2022-11-20T06:44:04;8.40;99.90
44271;DHT22;29963;44.594;11.368;2022-11-20T06:46:30;8.40;99.90
44271;DHT22;29963;44.594;11.368;2022-11-20T06:48:56;8.40;99.90
44271;DHT22;29963;44.594;11.368;2022-11-20T06:51:23;8.30;99.90
44271;DHT22;29963;44.594;11.368;2022-11-20T06:53:49;8.30;99.90
44271;DHT22;29963;44.594;11.368;2022-11-20T06:56:14;8.20;99.90
44271;DHT22;29963;44.594;11.368;2022-11-20T06:58:40;8.20;99.90
44271;DHT22;29963;44.594;11.368;2022-11-20T07:01:10;8.10;99.90
44271;DHT22;29963;44.594;11.368;2022-11-20T07:03:36;8.20;99.90
44271;DHT22;29963;44.594;11.368;2022-11-20T07:06:03;8.20;99.90
44271;DHT22;29963;44.594;11.368;2022-11-20T07:08:29;8.20;99.90
44271;DHT22;29963;44.594;11.368;2022-11-20T07:11:00;8.20;99.90
44271;DHT22;29963;44.594;11.368;2022-11-20T07:13:29;8.40;99.90
44271;DHT22;29963;44.594;11.368;2022-11-20T07:15:55;8.40;99.90
44271;DHT22;29963;44.594;11.368;2022-11-20T07:18:24;8.40;99.90
44271;DHT22;29963;44.594;11.368;2022-11-20T07:20:50;8.50;99.90
44271;DHT22;29963;44.594;11.368;2022-11-20T07:23:15;8.60;99.90
44271;DHT22;29963;44.594;11.368;2022-11-20T07:25:41;8.60;99.90
44271;DHT22;29963;44.594;11.368;2022-11-20T07:28:06;8.70;99.90
44271;DHT22;29963;44.594;11.368;2022-11-20T07:30:32;8.70;99.90
44271;DHT22;29963;44.594;11.368;2022-11-20T07:32:58;8.80;99.90
44271;DHT22;29963;44.594;11.368;2022-11-20T07:35:24;8.80;99.90
44271;DHT22;29963;44.594;11.368;2022-11-20T07:37:50;8.80;99.90
44271;DHT22;29963;44.594;11.368;2022-11-20T07:40:16;8.90;99.90
44271;DHT22;29963;44.594;11.368;2022-11-20T07:42:53;9.00;99.90
44271;DHT22;29963;44.594;11.368;2022-11-20T07:45:20;9.00;99.90
44271;DHT22;29963;44.594;11.368;2022-11-20T07:47:46;9.00;99.90
44271;DHT22;29963;44.594;11.368;2022-11-20T07:50:12;9.00;99.90
44271;DHT22;29963;44.594;11.368;2022-11-20T07:52:39;9.00;99.90
44271;DHT22;29963;44.594;11.368;2022-11-20T07:55:06;9.10;99.90
44271;DHT22;29963;44.594;11.368;2022-11-20T07:57:32;9.10;99.90
44271;DHT22;29963;44.594;11.368;2022-11-20T07:59:57;9.10;99.90
44271;DHT22;29963;44.594;11.368;2022-11-20T08:02:23;9.20;99.90
44271;DHT22;29963;44.594;11.368;2022-11-20T08:04:48;9.30;99.90
44271;DHT22;29963;44.594;11.368;2022-11-20T08:07:14;9.40;99.90
44271;DHT22;29963;44.594;11.368;2022-11-20T08:09:40;9.50;99.90
44271;DHT22;29963;44.594;11.368;2022-11-20T08:12:06;9.50;99.90
44271;DHT22;29963;44.594;11.368;2022-11-20T08:14:50;9.60;99.90
44271;DHT22;29963;44.594;11.368;2022-11-20T08:17:15;9.60;99.90
44271;DHT22;29963;44.594;11.368;2022-11-20T08:19:41;9.60;99.90
44271;DHT22;29963;44.594;11.368;2022-11-20T08:22:07;9.60;99.90
44271;DHT22;29963;44.594;11.368;2022-11-20T08:24:32;9.60;99.90
44271;DHT22;29963;44.594;11.368;2022-11-20T08:26:58;9.70;99.90
44271;DHT22;29963;44.594;11.368;2022-11-20T08:29:25;9.70;99.90
44271;DHT22;29963;44.594;11.368;2022-11-20T08:31:51;9.80;99.90
44271;DHT22;29963;44.594;11.368;2022-11-20T08:34:17;9.80;99.90
44271;DHT22;29963;44.594;11.368;2022-11-20T08:36:42;9.80;99.90
44271;DHT22;29963;44.594;11.368;2022-11-20T08:39:10;9.90;99.90
44271;DHT22;29963;44.594;11.368;2022-11-20T08:41:36;9.90;99.90
44271;DHT22;29963;44.594;11.368;2022-11-20T08:44:04;9.90;99.90
44271;DHT22;29963;44.594;11.368;2022-11-20T08:46:38;9.90;99.90
44271;DHT22;29963;44.594;11.368;2022-11-20T08:49:05;9.90;99.90
44271;DHT22;29963;44.594;11.368;2022-11-20T08:51:33;10.00;99.90
44271;DHT22;29963;44.594;11.368;2022-11-20T08:53:58;10.10;99.90
44271;DHT22;29963;44.594;11.368;2022-11-20T08:56:24;10.20;99.90
44271;DHT22;29963;44.594;11.368;2022-11-20T08:58:50;10.20;99.90
44271;DHT22;29963;44.594;11.368;2022-11-20T09:01:18;10.30;99.90
44271;DHT22;29963;44.594;11.368;2022-11-20T09:03:43;10.30;99.90
44271;DHT22;29963;44.594;11.368;2022-11-20T09:06:09;10.40;99.90
44271;DHT22;29963;44.594;11.368;2022-11-20T09:08:35;10.40;99.90
44271;DHT22;29963;44.594;11.368;2022-11-20T09:11:01;10.50;99.90
44271;DHT22;29963;44.594;11.368;2022-11-20T09:13:28;10.50;99.90
44271;DHT22;29963;44.594;11.368;2022-11-20T09:15:59;10.50;99.90
44271;DHT22;29963;44.594;11.368;2022-11-20T09:18:26;10.60;99.90
44271;DHT22;29963;44.594;11.368;2022-11-20T09:20:55;10.70;99.90
44271;DHT22;29963;44.594;11.368;2022-11-20T09:23:21;10.70;99.90
44271;DHT22;29963;44.594;11.368;2022-11-20T09:25:46;10.70;99.90
44271;DHT22;29963;44.594;11.368;2022-11-20T09:28:12;10.70;99.90
44271;DHT22;29963;44.594;11.368;2022-11-20T09:30:38;10.80;99.90
44271;DHT22;29963;44.594;11.368;2022-11-20T09:33:05;10.90;99.90
44271;DHT22;29963;44.594;11.368;2022-11-20T09:35:32;10.90;99.90
44271;DHT22;29963;44.594;11.368;2022-11-20T09:37:57;11.00;99.90
44271;DHT22;29963;44.594;11.368;2022-11-20T09:40:25;10.90;99.90
44271;DHT22;29963;44.594;11.368;2022-11-20T09:43:16;10.90;99.90
44271;DHT22;29963;44.594;11.368;2022-11-20T09:46:08;11.00;99.90
44271;DHT22;29963;44.594;11.368;2022-11-20T09:51:51;11.10;99.90
44271;DHT22;29963;44.594;11.368;2022-11-20T09:54:30;11.20;99.90
44271;DHT22;29963;44.594;11.368;2022-11-20T09:57:00;11.20;99.90
44271;DHT22;29963;44.594;11.368;2022-11-20T09:59:40;11.30;99.90
44271;DHT22;29963;44.594;11.368;2022-11-20T10:02:37;11.20;99.90
44271;DHT22;29963;44.594;11.368;2022-11-20T10:07:48;11.40;99.90
44271;DHT22;29963;44.594;11.368;2022-11-20T10:10:34;11.40;99.90
44271;DHT22;29963;44.594;11.368;2022-11-20T10:13:29;11.50;99.90
44271;DHT22;29963;44.594;11.368;2022-11-20T10:19:24;11.60;99.90
44271;DHT22;29963;44.594;11.368;2022-11-20T10:24:56;11.70;99.90
44271;DHT22;29963;44.594;11.368;2022-11-20T10:30:01;11.70;99.90
44271;DHT22;29963;44.594;11.368;2022-11-20T10:32:35;11.80;99.90
44271;DHT22;29963;44.594;11.368;2022-11-20T10:37:31;11.90;99.90
44271;DHT22;29963;44.594;11.368;2022-11-20T10:42:44;12.00;99.90
44271;DHT22;29963;44.594;11.368;2022-11-20T10:48:16;12.20;99.90
44271;DHT22;29963;44.594;11.368;2022-11-20T10:50:57;12.20;99.90
44271;DHT22;29963;44.594;11.368;2022-11-20T11:01:57;12.30;99.90
44271;DHT22;29963;44.594;11.368;2022-11-20T11:04:40;12.40;99.90
44271;DHT22;29963;44.594;11.368;2022-11-20T11:09:53;12.50;99.90
44271;DHT22;29963;44.594;11.368;2022-11-20T11:12:21;12.60;99.90
44271;DHT22;29963;44.594;11.368;2022-11-20T11:14:52;12.60;99.90
44271;DHT22;29963;44.594;11.368;2022-11-20T11:17:45;12.60;99.90
44271;DHT22;29963;44.594;11.368;2022-11-20T11:20:18;12.50;99.90
44271;DHT22;29963;44.594;11.368;2022-11-20T11:22:55;12.60;99.90
44271;DHT22;29963;44.594;11.368;2022-11-20T11:27:59;12.70;99.90
44271;DHT22;29963;44.594;11.368;2022-11-20T11:30:27;12.80;99.90
44271;DHT22;29963;44.594;11.368;2022-11-20T11:33:29;12.80;99.90
44271;DHT22;29963;44.594;11.368;2022-11-20T11:35:58;12.90;99.90
44271;DHT22;29963;44.594;11.368;2022-11-20T11:38:28;12.90;99.90
44271;DHT22;29963;44.594;11.368;2022-11-20T11:40:56;13.00;99.90
44271;DHT22;29963;44.594;11.368;2022-11-20T11:43:31;13.00;99.90
44271;DHT22;29963;44.594;11.368;2022-11-20T11:46:33;13.00;99.90
44271;DHT22;29963;44.594;11.368;2022-11-20T11:49:08;13.00;99.90
44271;DHT22;29963;44.594;11.368;2022-11-20T11:52:03;13.00;99.90
44271;DHT22;29963;44.594;11.368;2022-11-20T11:54:52;13.00;99.90
44271;DHT22;29963;44.594;11.368;2022-11-20T12:00:11;13.10;99.90
44271;DHT22;29963;44.594;11.368;2022-11-20T12:05:24;13.20;99.90
44271;DHT22;29963;44.594;11.368;2022-11-20T12:16:00;13.40;99.90
44271;DHT22;29963;44.594;11.368;2022-11-20T12:18:27;13.50;99.90
44271;DHT22;29963;44.594;11.368;2022-11-20T12:29:26;13.70;99.90
44271;DHT22;29963;44.594;11.368;2022-11-20T12:50:51;14.20;99.90
44271;DHT22;29963;44.594;11.368;2022-11-20T12:53:04;14.20;99.90
44271;DHT22;29963;44.594;11.368;2022-11-20T12:58:26;14.40;99.90
44271;DHT22;29963;44.594;11.368;2022-11-20T13:03:32;14.70;99.90
44271;DHT22;29963;44.594;11.368;2022-11-20T13:08:38;15.00;99.90
44271;DHT22;29963;44.594;11.368;2022-11-20T13:11:35;15.10;99.90
44271;DHT22;29963;44.594;11.368;2022-11-20T13:14:19;15.20;99.90
44271;DHT22;29963;44.594;11.368;2022-11-20T13:16:58;15.40;99.90
44271;DHT22;29963;44.594;11.368;2022-11-20T13:19:26;15.60;99.90
44271;DHT22;29963;44.594;11.368;2022-11-20T13:21:54;15.80;99.90
44271;DHT22;29963;44.594;11.368;2022-11-20T13:26:46;16.10;99.90
44271;DHT22;29963;44.594;11.368;2022-11-20T13:29:16;16.20;99.90
44271;DHT22;29963;44.594;11.368;2022-11-20T13:31:46;16.40;99.90
44271;DHT22;29963;44.594;11.368;2022-11-20T13:34:26;16.50;99.90
44271;DHT22;29963;44.594;11.368;2022-11-20T13:36:57;16.60;99.90
44271;DHT22;29963;44.594;11.368;2022-11-20T13:39:32;16.70;99.90
44271;DHT22;29963;44.594;11.368;2022-11-20T13:42:03;16.90;99.90
44271;DHT22;29963;44.594;11.368;2022-11-20T13:44:50;17.00;99.90
44271;DHT22;29963;44.594;11.368;2022-11-20T13:47:27;17.10;99.90
44271;DHT22;29963;44.594;11.368;2022-11-20T13:49:55;17.30;99.90
44271;DHT22;29963;44.594;11.368;2022-11-20T14:03:38;17.80;99.90
44271;DHT22;29963;44.594;11.368;2022-11-20T14:06:10;18.00;99.90
44271;DHT22;29963;44.594;11.368;2022-11-20T14:08:42;18.10;99.90
44271;DHT22;29963;44.594;11.368;2022-11-20T14:11:29;18.20;99.90
44271;DHT22;29963;44.594;11.368;2022-11-20T14:14:19;18.20;99.90
44271;DHT22;29963;44.594;11.368;2022-11-20T14:16:47;18.40;99.90
44271;DHT22;29963;44.594;11.368;2022-11-20T14:19:27;18.50;99.90
44271;DHT22;29963;44.594;11.368;2022-11-20T14:22:06;18.60;99.90
44271;DHT22;29963;44.594;11.368;2022-11-20T14:24:33;18.80;99.90
44271;DHT22;29963;44.594;11.368;2022-11-20T14:26:58;18.80;99.90
44271;DHT22;29963;44.594;11.368;2022-11-20T14:29:29;18.80;99.90
44271;DHT22;29963;44.594;11.368;2022-11-20T14:31:58;18.90;99.90
44271;DHT22;29963;44.594;11.368;2022-11-20T14:34:29;19.10;99.90
44271;DHT22;29963;44.594;11.368;2022-11-20T14:37:11;19.20;99.90
44271;DHT22;29963;44.594;11.368;2022-11-20T14:39:47;19.30;99.90
44271;DHT22;29963;44.594;11.368;2022-11-20T14:42:19;19.40;99.90
44271;DHT22;29963;44.594;11.368;2022-11-20T14:44:45;19.60;99.90
44271;DHT22;29963;44.594;11.368;2022-11-20T14:47:13;19.80;99.90
44271;DHT22;29963;44.594;11.368;2022-11-20T14:49:40;19.90;99.90
44271;DHT22;29963;44.594;11.368;2022-11-20T14:52:19;19.80;99.90
44271;DHT22;29963;44.594;11.368;2022-11-20T14:54:54;19.80;99.90
44271;DHT22;29963;44.594;11.368;2022-11-20T14:57:26;19.60;99.90
44271;DHT22;29963;44.594;11.368;2022-11-20T15:00:17;19.50;99.90
44271;DHT22;29963;44.594;11.368;2022-11-20T15:02:46;19.50;99.90
44271;DHT22;29963;44.594;11.368;2022-11-20T15:05:12;19.40;99.90
44271;DHT22;29963;44.594;11.368;2022-11-20T15:07:44;19.30;99.90
44271;DHT22;29963;44.594;11.368;2022-11-20T15:10:23;19.20;99.90
44271;DHT22;29963;44.594;11.368;2022-11-20T15:12:53;19.00;99.90
44271;DHT22;29963;44.594;11.368;2022-11-20T15:15:47;18.80;99.90
44271;DHT22;29963;44.594;11.368;2022-11-20T15:18:15;18.60;99.90
44271;DHT22;29963;44.594;11.368;2022-11-20T15:20:42;18.20;99.90
44271;DHT22;29963;44.594;11.368;2022-11-20T15:23:11;18.00;99.90
44271;DHT22;29963;44.594;11.368;2022-11-20T15:25:39;17.90;99.90
44271;DHT22;29963;44.594;11.368;2022-11-20T15:28:04;17.60;99.90
44271;DHT22;29963;44.594;11.368;2022-11-20T15:30:35;17.30;99.90
44271;DHT22;29963;44.594;11.368;2022-11-20T15:33:01;17.00;99.90
44271;DHT22;29963;44.594;11.368;2022-11-20T15:35:26;16.60;99.90
44271;DHT22;29963;44.594;11.368;2022-11-20T15:37:52;16.30;99.90
44271;DHT22;29963;44.594;11.368;2022-11-20T15:40:17;16.00;99.90
44271;DHT22;29963;44.594;11.368;2022-11-20T15:42:43;15.70;99.90
44271;DHT22;29963;44.594;11.368;2022-11-20T15:48:01;15.10;99.90
44271;DHT22;29963;44.594;11.368;2022-11-20T15:50:54;15.00;99.90
44271;DHT22;29963;44.594;11.368;2022-11-20T15:53:22;14.80;99.90
44271;DHT22;29963;44.594;11.368;2022-11-20T15:55:47;14.60;99.90
44271;DHT22;29963;44.594;11.368;2022-11-20T15:58:13;14.50;99.90
44271;DHT22;29963;44.594;11.368;2022-11-20T16:00:39;14.40;99.90
44271;DHT22;29963;44.594;11.368;2022-11-20T16:03:05;14.30;99.90
44271;DHT22;29963;44.594;11.368;2022-11-20T16:05:30;14.10;99.90
44271;DHT22;29963;44.594;11.368;2022-11-20T16:07:56;14.00;99.90
44271;DHT22;29963;44.594;11.368;2022-11-20T16:10:23;14.00;99.90
44271;DHT22;29963;44.594;11.368;2022-11-20T16:12:49;13.90;99.90
44271;DHT22;29963;44.594;11.368;2022-11-20T16:15:33;13.80;99.90
44271;DHT22;29963;44.594;11.368;2022-11-20T16:18:17;13.70;99.90
44271;DHT22;29963;44.594;11.368;2022-11-20T16:20:45;13.60;99.90
44271;DHT22;29963;44.594;11.368;2022-11-20T16:23:11;13.50;99.90
44271;DHT22;29963;44.594;11.368;2022-11-20T16:25:37;13.50;99.90
44271;DHT22;29963;44.594;11.368;2022-11-20T16:28:03;13.50;99.90
44271;DHT22;29963;44.594;11.368;2022-11-20T16:30:30;13.40;99.90
44271;DHT22;29963;44.594;11.368;2022-11-20T16:32:56;13.40;99.90
44271;DHT22;29963;44.594;11.368;2022-11-20T16:35:21;13.30;99.90
44271;DHT22;29963;44.594;11.368;2022-11-20T16:37:47;13.30;99.90
44271;DHT22;29963;44.594;11.368;2022-11-20T16:40:12;13.20;99.90
44271;DHT22;29963;44.594;11.368;2022-11-20T16:42:38;13.10;99.90
44271;DHT22;29963;44.594;11.368;2022-11-20T16:45:04;13.10;99.90
44271;DHT22;29963;44.594;11.368;2022-11-20T16:47:34;13.00;99.90
44271;DHT22;29963;44.594;11.368;2022-11-20T16:50:01;12.90;99.90
44271;DHT22;29963;44.594;11.368;2022-11-20T16:52:27;12.90;99.90
44271;DHT22;29963;44.594;11.368;2022-11-20T16:54:53;12.90;99.90
44271;DHT22;29963;44.594;11.368;2022-11-20T16:57:18;12.80;99.90
44271;DHT22;29963;44.594;11.368;2022-11-20T16:59:44;12.80;99.90
44271;DHT22;29963;44.594;11.368;2022-11-20T17:02:10;12.70;99.90
44271;DHT22;29963;44.594;11.368;2022-11-20T17:04:36;12.70;99.90
44271;DHT22;29963;44.594;11.368;2022-11-20T17:07:02;12.70;99.90
44271;DHT22;29963;44.594;11.368;2022-11-20T17:09:28;12.60;99.90
44271;DHT22;29963;44.594;11.368;2022-11-20T17:11:54;12.60;99.90
44271;DHT22;29963;44.594;11.368;2022-11-20T17:14:19;12.60;99.90
44271;DHT22;29963;44.594;11.368;2022-11-20T17:16:45;12.50;99.90
44271;DHT22;29963;44.594;11.368;2022-11-20T17:19:12;12.50;99.90
44271;DHT22;29963;44.594;11.368;2022-11-20T17:21:38;12.50;99.90
44271;DHT22;29963;44.594;11.368;2022-11-20T17:24:10;12.50;99.90